Time;durP1;ratioP1;P1;durP2;ratioP2;P2;SDS_P1;SDS_P2;PMS_P1;PMS_P2;Temp;Humidity;BMP_temperature;BMP_pressure;BME280_temperature;BME280_humidity;BME280_pressure;Samples;Min_cycle;Max_cycle;Signal;HPM_P1;HPM_P2
2023/03/01 05:22:32;;;;;;;3.05;2.67;;;;;;;-1.79;90.33;100982.59;5089062;28;20920;-70
2023/03/01 05:24:57;;;;;;;5.88;2.83;;;;;;;-1.77;90.66;100991.19;5089108;28;20044;-71
2023/03/01 05:27:23;;;;;;;8.10;3.85;;;;;;;-1.75;90.14;100989.38;5087466;28;20024;-70
2023/03/01 05:29:48;;;;;;;7.70;4.35;;;;;;;-1.73;90.17;100988.38;5088937;28;20473;-70
2023/03/01 05:32:15;;;;;;;5.72;3.78;;;;;;;-1.73;90.00;100988.38;5088311;28;20063;-70
2023/03/01 05:34:41;;;;;;;7.05;4.53;;;;;;;-1.72;90.17;100989.22;5088818;28;20044;-71
2023/03/01 05:37:07;;;;;;;7.18;4.13;;;;;;;-1.71;90.26;100990.91;5088542;28;20035;-71
2023/03/01 05:39:33;;;;;;;4.78;3.47;;;;;;;-1.72;90.54;100989.22;5088515;28;20097;-71
2023/03/01 05:42:00;;;;;;;6.75;4.35;;;;;;;-1.74;90.76;100983.22;5088373;28;20036;-70
2023/03/01 05:44:26;;;;;;;5.45;4.28;;;;;;;-1.70;90.91;100990.81;5087009;28;20055;-69
2023/03/01 05:46:51;;;;;;;5.60;3.92;;;;;;;-1.74;90.31;100991.91;5088289;28;20135;-69
2023/03/01 05:49:17;;;;;;;7.30;4.65;;;;;;;-1.72;90.89;100984.00;5088054;28;20115;-69
2023/03/01 05:51:47;;;;;;;5.63;3.55;;;;;;;-1.73;90.60;100979.69;5088334;28;20396;-70
2023/03/01 05:54:12;;;;;;;7.05;4.03;;;;;;;-1.73;90.60;100987.53;5088232;28;20373;-72
2023/03/01 05:56:37;;;;;;;6.60;4.03;;;;;;;-1.73;90.66;100990.13;5086948;28;20039;-71
2023/03/01 05:59:07;;;;;;;9.65;3.88;;;;;;;-1.76;90.40;100978.09;5088024;28;20048;-69
2023/03/01 06:01:34;;;;;;;6.75;4.50;;;;;;;-1.76;90.08;100979.81;5088255;28;20067;-69
2023/03/01 06:03:59;;;;;;;8.48;4.53;;;;;;;-1.76;90.99;100983.31;5088332;28;20036;-72
2023/03/01 06:06:24;;;;;;;6.75;5.13;;;;;;;-1.71;91.08;100986.50;5088305;28;20044;-70
2023/03/01 06:08:51;;;;;;;4.28;3.45;;;;;;;-1.69;90.78;100989.06;5087888;28;20082;-69
2023/03/01 06:11:17;;;;;;;5.70;4.90;;;;;;;-1.77;90.92;100992.03;5088200;28;20032;-70
2023/03/01 06:13:43;;;;;;;6.75;4.70;;;;;;;-1.76;90.80;100987.66;5088163;28;20093;-69
2023/03/01 06:16:09;;;;;;;3.67;3.15;;;;;;;-1.80;90.98;100975.69;5088019;28;20051;-70
2023/03/01 06:18:36;;;;;;;8.77;5.28;;;;;;;-1.80;90.93;100987.00;5087808;28;20477;-69
2023/03/01 06:21:01;;;;;;;7.35;4.15;;;;;;;-1.75;90.29;100986.78;5087927;28;20066;-70
2023/03/01 06:23:27;;;;;;;9.07;5.22;;;;;;;-1.75;90.62;100994.59;5088066;28;20494;-70
2023/03/01 06:25:52;;;;;;;6.43;4.35;;;;;;;-1.74;90.14;100983.22;5087889;28;20089;-70
2023/03/01 06:28:18;;;;;;;7.90;5.25;;;;;;;-1.70;90.47;100989.97;5087580;28;20028;-70
2023/03/01 06:30:44;;;;;;;8.90;3.95;;;;;;;-1.76;90.87;100983.31;5087982;28;20047;-70
2023/03/01 06:33:09;;;;;;;5.50;4.20;;;;;;;-1.77;90.72;100989.44;5078415;28;20440;-70
2023/03/01 06:35:35;;;;;;;4.80;4.13;;;;;;;-1.76;90.13;100990.28;5074217;28;20074;-70
2023/03/01 06:38:02;;;;;;;7.13;4.38;;;;;;;-1.75;90.74;100992.00;5073916;28;20485;-71
2023/03/01 06:40:28;;;;;;;8.63;5.17;;;;;;;-1.70;90.40;100995.19;5074214;28;20083;-69
2023/03/01 06:42:54;;;;;;;5.63;4.68;;;;;;;-1.73;90.98;100993.59;5074147;28;20040;-69
2023/03/01 06:45:21;;;;;;;6.20;4.35;;;;;;;-1.73;91.01;100977.91;5073613;28;20040;-68
2023/03/01 06:47:47;;;;;;;7.28;4.93;;;;;;;-1.71;91.18;100980.44;5073744;28;20052;-68
2023/03/01 06:50:13;;;;;;;7.60;4.43;;;;;;;-1.68;90.94;100985.53;5073952;28;20032;-69
2023/03/01 06:52:39;;;;;;;9.15;4.90;;;;;;;-1.67;91.04;100977.63;5074066;28;20166;-71
2023/03/01 06:55:05;;;;;;;6.30;4.55;;;;;;;-1.62;90.25;100981.78;5073983;28;20078;-70
2023/03/01 06:57:31;;;;;;;8.75;4.88;;;;;;;-1.54;89.32;100992.66;5073509;28;20044;-69
2023/03/01 06:59:56;;;;;;;13.70;6.32;;;;;;;-1.47;89.17;100986.22;5073900;28;20032;-68
2023/03/01 07:02:22;;;;;;;8.38;5.60;;;;;;;-1.41;89.57;100980.66;5073210;28;20190;-68
2023/03/01 07:04:50;;;;;;;8.50;4.40;;;;;;;-1.35;88.44;100977.75;5073677;28;20036;-69
2023/03/01 07:07:17;;;;;;;5.75;4.40;;;;;;;-1.22;87.74;100984.03;5073367;28;20038;-68
2023/03/01 07:09:46;;;;;;;6.67;4.20;;;;;;;-1.16;88.43;100968.00;5073801;28;20044;-69
2023/03/01 07:12:11;;;;;;;7.47;4.80;;;;;;;-0.99;87.07;100967.09;5073666;28;20044;-69
2023/03/01 07:14:37;;;;;;;6.20;4.70;;;;;;;-0.88;86.06;100967.38;5073597;28;20071;-68
2023/03/01 07:17:02;;;;;;;7.38;5.00;;;;;;;-0.75;84.72;100959.72;5073412;28;20037;-68
2023/03/01 07:19:28;;;;;;;6.72;4.63;;;;;;;-0.65;84.89;100955.69;5073284;28;20424;-58
2023/03/01 07:21:53;;;;;;;7.68;4.57;;;;;;;-0.73;85.12;100954.38;5073321;28;20059;-57
2023/03/01 07:24:19;;;;;;;9.93;4.63;;;;;;;-0.55;84.75;100949.00;5073347;28;20032;-58
2023/03/01 07:26:48;;;;;;;6.13;3.67;;;;;;;-0.44;83.35;100944.94;5073314;28;20456;-58
2023/03/01 07:29:13;;;;;;;7.18;4.38;;;;;;;-0.34;82.37;100959.19;5073036;28;20044;-57
2023/03/01 07:31:39;;;;;;;9.98;3.75;;;;;;;-0.23;81.31;100948.97;5073286;28;20036;-65
2023/03/01 07:34:04;;;;;;;8.73;4.85;;;;;;;-0.10;80.77;100957.81;5071926;28;20024;-66
2023/03/01 07:36:30;;;;;;;6.10;3.28;;;;;;;-0.03;79.80;100943.41;5072090;28;20040;-66
2023/03/01 07:38:55;;;;;;;6.93;3.47;;;;;;;0.01;79.59;100944.09;5072937;28;20064;-65
2023/03/01 07:41:21;;;;;;;10.23;5.40;;;;;;;0.19;79.06;100950.03;5073020;28;20064;-65
2023/03/01 07:43:46;;;;;;;7.72;4.88;;;;;;;0.16;78.55;100955.47;5072277;28;20024;-65
2023/03/01 07:46:12;;;;;;;6.75;4.63;;;;;;;0.09;78.98;100934.00;5072666;28;20040;-64
2023/03/01 07:48:37;;;;;;;8.25;4.45;;;;;;;0.32;77.81;100945.75;5072676;28;20090;-64
2023/03/01 07:51:06;;;;;;;6.95;4.65;;;;;;;0.34;77.19;100940.44;5072929;28;20037;-64
2023/03/01 07:53:33;;;;;;;8.05;4.82;;;;;;;0.48;76.81;100935.22;5072838;28;20039;-65
2023/03/01 07:56:10;;;;;;;7.88;4.60;;;;;;;0.62;76.37;100942.25;5072813;28;20032;-65
2023/03/01 07:58:41;;;;;;;7.03;4.15;;;;;;;0.69;75.71;100933.91;5072450;28;20032;-65
2023/03/01 08:01:14;;;;;;;9.73;4.75;;;;;;;0.66;75.92;100930.66;5072763;28;20036;-65
2023/03/01 08:03:40;;;;;;;8.88;4.47;;;;;;;0.86;74.78;100937.28;5072647;28;20400;-65
2023/03/01 08:06:08;;;;;;;7.40;4.00;;;;;;;0.90;74.24;100931.75;5072328;28;20095;-66
2023/03/01 08:08:34;;;;;;;7.43;4.68;;;;;;;0.93;74.30;100931.56;5072108;28;20473;-66
2023/03/01 08:11:01;;;;;;;10.43;4.55;;;;;;;1.05;73.53;100930.81;5072460;28;20044;-66
2023/03/01 08:13:27;;;;;;;7.97;4.90;;;;;;;1.06;73.23;100926.41;5071065;28;20131;-66
2023/03/01 08:15:53;;;;;;;11.13;5.47;;;;;;;1.21;72.61;100925.44;5071009;28;20190;-65
2023/03/01 08:18:19;;;;;;;8.77;4.40;;;;;;;1.29;71.96;100923.16;5070813;28;20066;-66
2023/03/01 08:20:45;;;;;;;8.90;4.82;;;;;;;1.40;71.29;100916.38;5072222;28;20489;-66
2023/03/01 08:23:11;;;;;;;7.57;4.43;;;;;;;1.24;71.82;100919.13;5072351;28;20094;-65
2023/03/01 08:25:37;;;;;;;8.45;4.85;;;;;;;1.22;71.49;100913.97;5072186;28;20119;-65
2023/03/01 08:28:04;;;;;;;9.88;5.38;;;;;;;1.25;71.72;100910.34;5071899;28;20045;-65
2023/03/01 08:30:29;;;;;;;8.45;4.47;;;;;;;1.52;70.86;100910.34;5072119;28;20036;-65
2023/03/01 08:32:55;;;;;;;6.55;4.47;;;;;;;1.67;69.78;100904.09;5072131;28;20058;-65
2023/03/01 08:35:20;;;;;;;8.38;4.68;;;;;;;1.63;69.83;100908.72;5071936;28;20481;-66
2023/03/01 08:37:46;;;;;;;7.32;4.45;;;;;;;1.88;69.14;100910.56;5071786;28;20102;-65
2023/03/01 08:40:13;;;;;;;9.82;4.60;;;;;;;2.04;67.10;100909.56;5071947;28;20050;-65
2023/03/01 08:42:39;;;;;;;9.87;5.03;;;;;;;2.13;66.55;100912.41;5071935;28;20032;-64
2023/03/01 08:45:05;;;;;;;9.52;5.78;;;;;;;2.12;66.94;100909.88;5071897;28;20051;-63
2023/03/01 08:47:33;;;;;;;9.43;5.68;;;;;;;2.41;65.86;100913.16;5070162;28;20147;-64
2023/03/01 08:49:59;;;;;;;12.32;5.47;;;;;;;2.42;65.85;100904.34;5071699;28;20033;-64
2023/03/01 08:52:24;;;;;;;7.88;4.82;;;;;;;2.37;64.85;100907.28;5071963;28;20606;-65
2023/03/01 08:54:50;;;;;;;7.78;4.70;;;;;;;2.65;65.10;100900.13;5071887;28;20040;-65
2023/03/01 08:57:15;;;;;;;8.10;4.95;;;;;;;2.75;63.56;100906.44;5071152;28;20477;-65
2023/03/01 08:59:41;;;;;;;12.18;5.60;;;;;;;2.69;63.32;100896.34;5071794;28;20048;-65
2023/03/01 09:02:12;;;;;;;8.73;5.80;;;;;;;2.92;62.37;100892.91;5070422;28;20032;-65
2023/03/01 09:04:38;;;;;;;7.75;4.95;;;;;;;3.06;62.77;100897.19;5070267;28;20500;-65
2023/03/01 09:07:03;;;;;;;10.52;5.32;;;;;;;3.02;62.70;100887.00;5071451;28;20036;-65
2023/03/01 09:09:29;;;;;;;7.93;4.63;;;;;;;2.76;62.69;100878.34;5071407;28;20040;-65
2023/03/01 09:11:54;;;;;;;10.95;4.80;;;;;;;2.91;62.08;100887.75;5070327;28;20044;-66
2023/03/01 09:14:20;;;;;;;8.57;4.75;;;;;;;2.94;62.96;100875.25;5071599;28;20165;-65
2023/03/01 09:16:46;;;;;;;8.40;4.55;;;;;;;3.05;61.92;100871.81;5071989;28;20032;-65
2023/03/01 09:19:11;;;;;;;5.97;5.00;;;;;;;3.08;62.34;100871.63;5071256;28;20040;-65
2023/03/01 09:21:37;;;;;;;10.15;5.63;;;;;;;3.19;61.87;100876.94;5071408;28;20043;-65
2023/03/01 09:24:02;;;;;;;7.68;5.15;;;;;;;2.96;61.25;100873.34;5053542;28;20036;-65
2023/03/01 09:26:28;;;;;;;12.73;6.47;;;;;;;3.15;62.15;100874.66;5070217;28;20434;-64
2023/03/01 09:28:55;;;;;;;9.63;5.05;;;;;;;3.49;61.43;100875.69;5069948;28;20114;-64
2023/03/01 09:31:23;;;;;;;10.68;5.05;;;;;;;3.71;59.70;100875.75;5070054;28;20048;-65
2023/03/01 09:33:50;;;;;;;8.23;5.05;;;;;;;3.93;59.29;100880.28;5071457;28;20032;-65
2023/03/01 09:36:20;;;;;;;10.15;5.07;;;;;;;3.83;58.97;100876.66;5071449;28;20123;-65
2023/03/01 09:38:46;;;;;;;8.80;5.45;;;;;;;3.72;59.66;100866.94;5071067;28;20051;-66
2023/03/01 09:41:17;;;;;;;10.48;4.72;;;;;;;4.03;58.99;100860.16;5071306;28;20112;-65
2023/03/01 09:44:13;;;;;;;10.05;4.85;;;;;;;3.99;58.22;100857.91;5071291;28;20078;-66
2023/03/01 09:46:43;;;;;;;7.45;4.55;;;;;;;4.14;58.33;100855.88;5071222;28;20047;-65
2023/03/01 09:49:18;;;;;;;10.95;4.95;;;;;;;4.35;57.42;100859.50;5070984;28;20037;-65
2023/03/01 09:51:54;;;;;;;14.23;5.93;;;;;;;4.38;57.50;100855.81;5071287;28;20064;-66
2023/03/01 09:54:20;;;;;;;11.68;6.03;;;;;;;4.44;56.90;100850.06;5071120;28;20029;-66
2023/03/01 09:57:08;;;;;;;10.70;6.03;;;;;;;4.72;56.67;100849.56;5071013;28;20361;-66
2023/03/01 09:59:52;;;;;;;14.48;6.30;;;;;;;4.88;55.84;100847.38;5051306;28;20520;-66
2023/03/01 10:02:54;;;;;;;6.47;4.85;;;;;;;5.16;54.84;100834.63;5071213;28;20037;-66
2023/03/01 10:05:29;;;;;;;9.23;5.82;;;;;;;5.14;54.97;100844.47;5071049;28;20482;-66
2023/03/01 10:08:26;;;;;;;8.25;5.32;;;;;;;5.52;54.75;100833.41;5072268;28;20032;-65
2023/03/01 10:10:52;;;;;;;10.40;6.18;;;;;;;5.47;53.26;100819.75;5074692;28;20054;-66
2023/03/01 10:13:27;;;;;;;7.57;5.28;;;;;;;5.81;52.50;100828.38;5074733;28;20032;-65
2023/03/01 10:15:57;;;;;;;9.10;4.80;;;;;;;6.02;53.08;100817.81;5073505;28;20651;-66
2023/03/01 10:18:27;;;;;;;8.88;5.82;;;;;;;6.36;51.04;100814.94;5074522;28;20040;-66
2023/03/01 10:20:55;;;;;;;7.72;5.20;;;;;;;6.17;51.17;100811.22;5074633;28;20044;-65
2023/03/01 10:23:23;;;;;;;8.02;5.63;;;;;;;7.00;49.35;100814.59;5074711;28;20036;-65
2023/03/01 10:26:06;;;;;;;10.05;5.82;;;;;;;7.22;49.21;100803.75;5074479;28;20066;-66
2023/03/01 10:28:41;;;;;;;9.60;5.68;;;;;;;7.68;47.63;100794.25;5074228;28;20040;-66
2023/03/01 10:31:13;;;;;;;9.15;5.07;;;;;;;7.85;46.90;100804.16;5074449;28;20032;-66
2023/03/01 10:33:41;;;;;;;10.27;5.90;;;;;;;8.28;45.76;100799.28;5074448;28;20127;-67
2023/03/01 10:36:07;;;;;;;9.43;5.53;;;;;;;8.65;45.67;100802.81;5074284;28;20040;-67
2023/03/01 10:38:52;;;;;;;7.60;5.53;;;;;;;9.05;45.10;100787.47;5072740;28;20097;-67
2023/03/01 10:41:17;;;;;;;11.05;6.03;;;;;;;8.62;44.62;100784.53;5074121;28;20035;-66
2023/03/01 10:43:49;;;;;;;10.25;6.55;;;;;;;9.13;43.11;100795.56;5072987;28;20044;-66
2023/03/01 10:46:26;;;;;;;11.15;6.15;;;;;;;8.72;44.38;100803.06;5074172;28;20055;-65
2023/03/01 10:49:18;;;;;;;8.85;6.32;;;;;;;8.95;43.95;100795.53;5073916;28;20096;-65
2023/03/01 10:51:47;;;;;;;10.85;6.82;;;;;;;9.22;44.31;100786.66;5072999;28;20036;-67
2023/03/01 10:54:27;;;;;;;10.88;6.45;;;;;;;10.13;41.62;100784.56;5074169;28;20037;-67
2023/03/01 10:56:59;;;;;;;10.57;6.57;;;;;;;10.09;41.24;100772.53;5073828;28;20054;-68
2023/03/01 10:59:33;;;;;;;11.20;5.97;;;;;;;9.98;41.63;100773.66;5073778;28;20052;-67
2023/03/01 11:02:21;;;;;;;11.73;6.75;;;;;;;10.40;40.76;100782.75;5073961;28;20039;-66
2023/03/01 11:05:01;;;;;;;9.13;6.18;;;;;;;10.47;40.54;100773.13;5073906;28;20032;-67
2023/03/01 11:07:27;;;;;;;10.90;7.18;;;;;;;10.63;40.21;100761.69;5073380;28;20146;-65
2023/03/01 11:09:52;;;;;;;9.68;6.80;;;;;;;9.97;41.23;100755.16;5073724;28;20067;-67
2023/03/01 11:12:19;;;;;;;9.95;6.18;;;;;;;10.09;40.67;100753.91;5073607;28;20466;-65
2023/03/01 11:14:52;;;;;;;10.50;5.85;;;;;;;9.67;41.83;100765.28;5073636;28;20036;-65
2023/03/01 11:17:38;;;;;;;10.35;6.10;;;;;;;10.51;40.25;100754.00;5073208;28;20036;-67
2023/03/01 11:20:13;;;;;;;11.07;6.43;;;;;;;10.26;40.47;100755.72;5073269;28;20068;-66
2023/03/01 11:22:52;;;;;;;9.40;6.57;;;;;;;10.82;39.30;100738.28;5072368;28;20043;-66
2023/03/01 11:25:21;;;;;;;11.43;6.60;;;;;;;11.07;39.45;100732.97;5073475;28;20040;-66
2023/03/01 11:27:47;;;;;;;11.05;6.72;;;;;;;10.97;39.00;100725.16;5073096;28;20468;-66
2023/03/01 11:30:19;;;;;;;9.32;7.03;;;;;;;10.88;38.78;100723.44;5073332;28;20115;-66
2023/03/01 11:32:52;;;;;;;9.70;5.97;;;;;;;10.76;39.74;100730.13;5073308;28;20044;-66
2023/03/01 11:35:22;;;;;;;14.63;7.68;;;;;;;10.42;40.32;100717.66;5073089;28;20119;-66
2023/03/01 11:38:01;;;;;;;10.20;6.38;;;;;;;10.87;39.67;100701.28;5073044;28;20040;-67
2023/03/01 11:40:35;;;;;;;10.52;7.00;;;;;;;11.56;38.10;100696.50;5073264;28;20108;-67
2023/03/01 11:43:28;;;;;;;10.82;5.95;;;;;;;11.59;38.15;100696.13;5073131;28;20089;-67
2023/03/01 11:46:30;;;;;;;11.25;6.55;;;;;;;11.90;37.26;100687.44;5073022;28;20485;-66
2023/03/01 11:49:23;;;;;;;9.82;6.70;;;;;;;11.77;38.10;100682.59;5072625;28;20063;-67
2023/03/01 11:52:21;;;;;;;10.63;6.53;;;;;;;11.48;37.54;100683.16;5072913;28;20100;-67
2023/03/01 11:55:24;;;;;;;9.75;6.82;;;;;;;11.90;37.48;100676.78;5072872;28;20032;-66
2023/03/01 11:58:04;;;;;;;9.88;6.50;;;;;;;11.92;37.13;100680.91;5072560;28;20159;-67
2023/03/01 12:00:57;;;;;;;10.35;6.32;;;;;;;12.68;35.97;100675.91;5072932;28;20462;-67
2023/03/01 12:03:29;;;;;;;13.18;7.43;;;;;;;12.26;36.52;100674.47;5072855;28;20036;-67
2023/03/01 12:06:30;;;;;;;11.93;6.95;;;;;;;12.16;36.79;100673.84;5071311;28;20085;-67
2023/03/01 12:09:16;;;;;;;9.57;6.35;;;;;;;11.98;36.75;100654.53;5038353;28;20059;-66
2023/03/01 12:11:59;;;;;;;9.88;6.45;;;;;;;12.08;36.97;100663.19;5072360;28;20178;-67
2023/03/01 12:14:43;;;;;;;11.27;6.55;;;;;;;13.23;35.52;100650.81;5072493;28;20028;-67
2023/03/01 12:17:20;;;;;;;9.30;6.03;;;;;;;13.12;35.52;100656.56;5072089;28;20047;-66
2023/03/01 12:19:59;;;;;;;8.10;6.15;;;;;;;12.56;35.69;100640.75;5072737;28;20075;-67
2023/03/01 12:22:51;;;;;;;12.23;6.97;;;;;;;11.59;37.91;100629.44;5070959;28;20025;-67
2023/03/01 12:25:25;;;;;;;10.15;6.85;;;;;;;12.32;36.47;100627.53;5043208;28;20508;-67
2023/03/01 12:28:00;;;;;;;12.85;6.28;;;;;;;11.18;37.91;100627.84;5071928;28;20094;-66
2023/03/01 12:30:29;;;;;;;10.75;6.75;;;;;;;12.04;37.40;100619.97;5071473;28;20039;-66
2023/03/01 12:32:55;;;;;;;11.45;6.95;;;;;;;12.78;36.25;100623.06;5071979;28;20021;-66
2023/03/01 12:35:32;;;;;;;9.85;6.72;;;;;;;12.77;35.66;100627.56;5069882;28;20038;-66
2023/03/01 12:38:33;;;;;;;10.07;6.78;;;;;;;12.84;35.08;100619.66;5061890;28;20039;-67
2023/03/01 12:41:25;;;;;;;10.48;6.38;;;;;;;11.39;38.04;100604.97;5061878;28;20033;-66
2023/03/01 12:44:04;;;;;;;10.48;6.60;;;;;;;12.05;36.31;100605.63;5062685;28;20078;-66
2023/03/01 12:47:08;;;;;;;11.23;6.95;;;;;;;13.34;35.15;100599.53;5062631;28;20029;-68
2023/03/01 12:50:02;;;;;;;11.30;6.75;;;;;;;12.98;35.12;100607.38;5060706;28;20059;-67
2023/03/01 12:52:35;;;;;;;10.45;6.38;;;;;;;12.74;35.34;100609.22;5058372;28;20037;-67
2023/03/01 12:55:02;;;;;;;11.25;6.70;;;;;;;12.99;34.97;100603.69;5061316;28;20071;-68
2023/03/01 12:57:36;;;;;;;9.38;5.97;;;;;;;12.30;36.54;100589.47;5061983;28;20112;-68
2023/03/01 13:00:24;;;;;;;10.93;6.90;;;;;;;12.13;36.96;100586.09;5061646;28;20104;-68
2023/03/01 13:03:01;;;;;;;9.25;5.95;;;;;;;12.49;36.12;100584.50;5061209;28;20085;-67
2023/03/01 13:05:34;;;;;;;;;;;;;;;13.29;35.03;100594.72;5062545;28;20059;-68
2023/03/01 13:08:28;;;;;;;8.05;5.93;;;;;;;13.29;34.68;100588.53;5060910;28;19920;-68
2023/03/01 13:10:59;;;;;;;8.13;6.00;;;;;;;14.04;33.47;100588.38;5063079;28;20033;-68
2023/03/01 13:13:26;;;;;;;9.80;6.88;;;;;;;12.82;35.57;100580.75;5071734;28;20405;-67
2023/03/01 13:15:53;;;;;;;10.27;6.25;;;;;;;12.63;36.43;100582.91;5066751;28;20124;-67
2023/03/01 13:18:19;;;;;;;12.82;7.38;;;;;;;13.00;35.14;100576.75;5070587;28;20052;-68
2023/03/01 13:20:47;;;;;;;11.63;6.43;;;;;;;12.71;35.69;100569.50;5071198;28;20261;-68
2023/03/01 13:23:19;;;;;;;11.57;7.07;;;;;;;13.14;34.58;100568.94;5071445;28;20111;-68
2023/03/01 13:26:07;;;;;;;9.98;5.53;;;;;;;13.13;34.55;100568.13;5071527;28;20405;-68
2023/03/01 13:28:35;;;;;;;8.98;6.35;;;;;;;12.60;35.30;100580.59;5070664;28;20028;-68
2023/03/01 13:31:03;;;;;;;10.35;6.53;;;;;;;12.03;36.14;100559.59;5071018;28;20072;-67
2023/03/01 13:33:29;;;;;;;;;;;;;;;12.19;36.57;100556.84;5071634;28;20395;-67
2023/03/01 13:35:58;;;;;;;10.82;6.25;;;;;;;12.48;35.96;100544.63;5071181;28;20018;-68
2023/03/01 13:38:40;;;;;;;9.75;6.45;;;;;;;12.38;36.69;100542.16;5070272;28;20048;-67
2023/03/01 13:41:07;;;;;;;12.07;6.63;;;;;;;12.08;36.82;100541.22;5071182;28;20063;-67
2023/03/01 13:43:44;;;;;;;12.47;7.80;;;;;;;12.01;36.98;100532.25;5070579;28;20635;-68
2023/03/01 13:46:16;;;;;;;10.35;6.82;;;;;;;11.60;37.96;100535.03;5064673;28;20283;-67
2023/03/01 13:48:45;;;;;;;9.18;6.22;;;;;;;11.26;38.15;100531.84;5054375;28;20032;-67
2023/03/01 13:51:12;;;;;;;8.10;5.93;;;;;;;10.87;39.01;100530.72;5055117;28;20112;-67
2023/03/01 13:53:44;;;;;;;10.57;6.55;;;;;;;10.46;39.73;100527.25;5055095;28;20029;-67
2023/03/01 13:56:21;;;;;;;12.02;6.43;;;;;;;10.48;39.83;100538.56;5054930;28;20048;-67
2023/03/01 13:58:58;;;;;;;9.25;6.35;;;;;;;10.04;40.80;100540.63;5054181;28;20029;-67
2023/03/01 14:01:30;;;;;;;10.00;6.53;;;;;;;9.61;41.65;100533.66;5070097;28;20028;-68
2023/03/01 14:03:56;;;;;;;9.57;6.00;;;;;;;8.89;42.83;100533.94;5074657;28;20040;-67
2023/03/01 14:06:29;;;;;;;13.07;7.15;;;;;;;9.36;42.57;100524.75;5074624;28;20055;-66
2023/03/01 14:09:15;;;;;;;9.48;5.72;;;;;;;9.26;42.81;100516.91;5074263;28;20037;-66
2023/03/01 14:12:21;;;;;;;9.15;5.65;;;;;;;9.38;42.42;100523.59;5074789;28;20040;-66
2023/03/01 14:15:24;;;;;;;9.02;5.78;;;;;;;8.71;43.91;100514.53;5059091;28;20447;-66
2023/03/01 14:18:02;;;;;;;11.05;6.43;;;;;;;9.06;43.04;100536.69;5074360;28;20032;-66
2023/03/01 14:20:32;;;;;;;8.90;5.30;;;;;;;9.23;42.85;100515.38;5074513;28;20037;-66
2023/03/01 14:23:00;;;;;;;9.93;6.18;;;;;;;9.38;42.51;100520.91;5074583;28;20040;-66
2023/03/01 14:25:27;;;;;;;13.13;7.28;;;;;;;9.27;43.12;100526.53;5074480;28;20508;-66
2023/03/01 14:28:16;;;;;;;9.15;6.13;;;;;;;9.37;42.88;100523.75;5074273;28;20055;-65
2023/03/01 14:30:43;;;;;;;11.00;6.70;;;;;;;9.23;43.26;100514.53;5074406;28;20029;-66
2023/03/01 14:33:18;;;;;;;11.10;5.85;;;;;;;9.11;43.31;100513.13;5073259;28;20398;-65
2023/03/01 14:35:56;;;;;;;7.78;5.07;;;;;;;8.80;44.05;100500.34;5074215;28;20058;-66
2023/03/01 14:38:27;;;;;;;11.30;6.65;;;;;;;8.63;44.44;100517.97;5074184;28;20048;-66
2023/03/01 14:40:58;;;;;;;9.43;5.82;;;;;;;8.85;44.08;100516.63;5074630;28;20086;-66
2023/03/01 14:43:26;;;;;;;10.68;6.43;;;;;;;8.74;43.75;100513.38;5074583;28;20047;-66
2023/03/01 14:45:51;;;;;;;8.85;5.63;;;;;;;8.51;44.42;100510.41;5074142;28;20028;-65
2023/03/01 14:48:18;;;;;;;7.95;5.40;;;;;;;8.74;44.06;100513.38;5073778;28;20454;-66
2023/03/01 14:50:44;;;;;;;9.05;5.20;;;;;;;8.81;44.38;100522.44;5073850;28;20040;-65
2023/03/01 14:53:24;;;;;;;13.13;6.43;;;;;;;8.58;44.51;100517.59;5073443;28;20067;-66
2023/03/01 14:55:52;;;;;;;8.75;5.85;;;;;;;8.41;44.57;100521.09;5072707;28;20036;-65
2023/03/01 14:58:21;;;;;;;9.05;5.80;;;;;;;8.10;45.49;100523.25;5073563;28;20036;-65
2023/03/01 15:00:53;;;;;;;9.63;5.57;;;;;;;8.24;45.30;100517.44;5073791;28;20120;-65
2023/03/01 15:03:24;;;;;;;10.07;5.40;;;;;;;8.02;46.00;100521.38;5073782;28;20036;-65
2023/03/01 15:05:50;;;;;;;9.45;5.93;;;;;;;8.13;45.74;100521.13;5073708;28;20037;-65
2023/03/01 15:08:23;;;;;;;10.63;6.30;;;;;;;8.20;45.72;100537.28;5073347;28;20379;-65
2023/03/01 15:11:16;;;;;;;10.45;5.65;;;;;;;8.18;45.88;100535.78;5073515;28;20486;-65
2023/03/01 15:13:42;;;;;;;9.27;5.85;;;;;;;7.87;45.96;100522.84;5072479;28;20052;-65
2023/03/01 15:16:15;;;;;;;10.13;6.13;;;;;;;8.15;45.75;100535.09;5072208;28;20086;-62
2023/03/01 15:18:46;;;;;;;12.70;6.13;;;;;;;8.13;45.74;100528.25;5072073;28;20060;-64
2023/03/01 15:21:16;;;;;;;9.40;5.60;;;;;;;8.13;45.52;100541.53;5073377;28;20127;-63
2023/03/01 15:23:49;;;;;;;10.40;5.13;;;;;;;8.17;46.19;100548.22;5073543;28;20114;-63
2023/03/01 15:26:27;;;;;;;12.77;5.57;;;;;;;8.16;45.82;100558.00;5073414;28;20040;-67
2023/03/01 15:28:57;;;;;;;8.63;5.82;;;;;;;7.93;46.35;100542.63;5073092;28;20111;-63
2023/03/01 15:31:29;;;;;;;10.75;5.65;;;;;;;8.00;46.18;100549.84;5073425;28;20041;-64
2023/03/01 15:34:22;;;;;;;10.70;5.90;;;;;;;8.00;46.38;100549.00;5073295;28;20146;-65
2023/03/01 15:36:50;;;;;;;7.68;4.70;;;;;;;7.83;46.33;100553.31;5073088;28;20028;-63
2023/03/01 15:39:36;;;;;;;11.18;5.28;;;;;;;7.80;46.71;100549.13;5072834;28;20123;-64
2023/03/01 15:42:23;;;;;;;10.85;5.15;;;;;;;7.56;46.84;100547.03;5073172;28;20046;-64
2023/03/01 15:44:48;;;;;;;10.85;5.78;;;;;;;7.60;46.96;100556.34;5065432;28;20121;-62
2023/03/01 15:47:32;;;;;;;10.68;6.50;;;;;;;7.37;47.17;100539.16;5072561;28;20044;-64
2023/03/01 15:49:59;;;;;;;7.75;4.60;;;;;;;7.44;47.26;100540.25;5073109;28;20458;-63
2023/03/01 15:52:29;;;;;;;10.82;5.97;;;;;;;7.57;47.18;100547.88;5072892;28;20056;-64
2023/03/01 15:55:00;;;;;;;11.27;6.07;;;;;;;7.67;47.23;100547.81;5072837;28;20486;-64
2023/03/01 15:57:25;;;;;;;9.35;6.13;;;;;;;7.70;47.04;100551.00;5072482;28;20498;-64
2023/03/01 15:59:51;;;;;;;10.93;6.53;;;;;;;7.60;47.36;100560.81;5072899;28;20060;-62
2023/03/01 16:02:20;;;;;;;9.60;6.03;;;;;;;7.49;46.97;100534.47;5072750;28;20039;-62
2023/03/01 16:04:46;;;;;;;7.78;4.43;;;;;;;7.45;47.40;100541.06;5072061;28;20383;-65
2023/03/01 16:07:12;;;;;;;8.05;5.32;;;;;;;7.46;47.31;100543.56;5072040;28;20413;-64
2023/03/01 16:09:37;;;;;;;9.15;5.55;;;;;;;7.47;47.30;100541.75;5072606;28;20115;-64
2023/03/01 16:12:03;;;;;;;8.55;5.72;;;;;;;7.38;47.42;100537.34;5071325;28;20390;-63
2023/03/01 16:14:28;;;;;;;9.45;5.70;;;;;;;7.39;47.66;100531.88;5072432;28;20056;-65
2023/03/01 16:16:54;;;;;;;10.05;5.43;;;;;;;7.25;47.87;100527.06;5070939;28;20041;-65
2023/03/01 16:19:19;;;;;;;9.70;5.30;;;;;;;7.26;48.22;100532.22;5070949;28;20048;-65
2023/03/01 16:21:46;;;;;;;11.02;5.70;;;;;;;7.22;48.30;100536.13;5071020;28;20044;-62
2023/03/01 16:24:12;;;;;;;9.13;5.80;;;;;;;7.18;48.32;100533.94;5072279;28;20041;-64
2023/03/01 16:26:38;;;;;;;12.18;6.28;;;;;;;7.13;48.20;100529.06;5070843;28;20079;-64
2023/03/01 16:29:04;;;;;;;9.68;5.90;;;;;;;7.04;48.63;100516.66;5072016;28;20131;-63
2023/03/01 16:31:29;;;;;;;11.18;6.13;;;;;;;7.05;48.45;100515.69;5072072;28;20029;-64
2023/03/01 16:33:56;;;;;;;7.95;5.15;;;;;;;7.07;48.62;100508.44;5072119;28;20033;-63
2023/03/01 16:36:24;;;;;;;9.57;5.28;;;;;;;6.92;49.24;100510.72;5070787;28;20037;-65
2023/03/01 16:38:50;;;;;;;10.07;5.40;;;;;;;6.93;49.24;100516.84;5071682;28;20024;-64
2023/03/01 16:41:18;;;;;;;9.20;6.10;;;;;;;6.97;48.95;100512.91;5071950;28;20041;-65
2023/03/01 16:43:46;;;;;;;9.65;5.45;;;;;;;6.96;48.66;100513.88;5072019;28;20043;-64
2023/03/01 16:46:24;;;;;;;7.68;4.90;;;;;;;6.86;49.14;100518.38;5071879;28;20036;-64
2023/03/01 16:48:50;;;;;;;;;;;;;;;6.77;49.56;100512.13;5072123;28;20041;-64
2023/03/01 16:51:15;;;;;;;6.43;4.25;;;;;;;6.83;49.17;100511.53;5071754;28;19923;-65
2023/03/01 16:53:41;;;;;;;8.05;4.78;;;;;;;6.78;49.38;100519.94;5072013;28;20040;-65
2023/03/01 16:56:09;;;;;;;8.50;4.50;;;;;;;6.73;49.31;100521.34;5071731;28;20056;-65
2023/03/01 16:58:36;;;;;;;14.07;5.78;;;;;;;6.65;49.64;100522.06;5071486;28;20758;-65
2023/03/01 17:01:10;;;;;;;8.40;5.07;;;;;;;6.70;49.40;100527.72;5071696;28;20036;-65
2023/03/01 17:03:36;;;;;;;8.07;5.43;;;;;;;6.62;49.47;100524.97;5071733;28;20036;-64
2023/03/01 17:06:09;;;;;;;8.23;4.70;;;;;;;6.63;49.83;100531.09;5070237;28;20044;-65
2023/03/01 17:08:35;;;;;;;7.57;5.85;;;;;;;6.56;50.00;100529.97;5071260;28;20043;-65